Time;durP1;ratioP1;P1;durP2;ratioP2;P2;SDS_P1;SDS_P2;PMS_P1;PMS_P2;Temp;Humidity;BMP_temperature;BMP_pressure;BME280_temperature;BME280_humidity;BME280_pressure;Samples;Min_cycle;Max_cycle;Signal;HPM_P1;HPM_P2
2021/03/03 00:02:00;;;;;;;16.27;12.97;;;10.20;80.00;;;;;;5093598;28;20511;-72
2021/03/03 00:04:26;;;;;;;13.83;11.90;;;10.20;80.40;;;;;;5093925;28;20160;-72
2021/03/03 00:06:52;;;;;;;16.43;12.03;;;10.20;80.60;;;;;;5092979;28;20181;-72
2021/03/03 00:09:18;;;;;;;17.13;13.20;;;10.20;80.40;;;;;;5093895;28;20553;-72
2021/03/03 00:11:43;;;;;;;14.27;11.13;;;10.20;80.40;;;;;;5093772;28;20541;-72
2021/03/03 00:14:10;;;;;;;15.10;12.60;;;10.20;80.50;;;;;;5091730;28;20200;-72
2021/03/03 00:16:35;;;;;;;20.00;12.77;;;10.20;80.50;;;;;;5093642;28;20624;-72
2021/03/03 00:19:01;;;;;;;19.57;12.70;;;10.20;80.40;;;;;;5092584;28;20410;-72
2021/03/03 00:21:27;;;;;;;17.00;12.20;;;10.20;80.60;;;;;;5088565;28;20174;-72
2021/03/03 00:23:53;;;;;;;14.13;12.20;;;10.20;81.20;;;;;;5073781;28;20422;-72
2021/03/03 00:26:19;;;;;;;16.90;13.10;;;10.10;81.10;;;;;;5089413;28;20442;-72
2021/03/03 00:28:46;;;;;;;14.00;12.47;;;10.10;80.70;;;;;;5093800;28;20214;-72
2021/03/03 00:31:13;;;;;;;13.70;11.27;;;10.10;80.90;;;;;;5092686;28;20269;-72
2021/03/03 00:33:39;;;;;;;20.47;12.00;;;10.00;80.80;;;;;;5093977;28;20465;-72
2021/03/03 00:36:05;;;;;;;16.60;13.07;;;10.00;81.10;;;;;;5073525;28;20450;-72
2021/03/03 00:38:31;;;;;;;13.90;12.27;;;10.00;81.40;;;;;;5093359;28;20402;-71
2021/03/03 00:40:56;;;;;;;16.10;12.63;;;10.00;81.60;;;;;;5075159;28;20426;-72
2021/03/03 00:43:22;;;;;;;16.80;12.43;;;10.00;81.70;;;;;;5091949;28;20183;-72
2021/03/03 00:45:48;;;;;;;16.40;11.83;;;10.00;81.80;;;;;;5092974;28;20169;-71
2021/03/03 00:48:14;;;;;;;16.77;13.50;;;10.00;81.50;;;;;;5092413;28;20205;-72
2021/03/03 00:50:39;;;;;;;17.03;12.00;;;10.00;81.70;;;;;;5092699;28;20196;-72
2021/03/03 00:53:14;;;;;;;16.50;13.17;;;9.90;82.80;;;;;;5092447;28;20205;-72
2021/03/03 00:55:40;;;;;;;15.17;12.37;;;9.90;82.90;;;;;;5086578;28;20651;-72
2021/03/03 00:58:06;;;;;;;14.73;12.37;;;9.80;83.30;;;;;;5074269;28;20444;-72
2021/03/03 01:00:33;;;;;;;13.40;11.20;;;9.80;83.30;;;;;;5092599;28;20452;-72
2021/03/03 01:02:59;;;;;;;16.57;11.60;;;9.80;83.50;;;;;;5093128;28;20754;-71
2021/03/03 01:05:25;;;;;;;18.80;11.80;;;9.70;83.40;;;;;;5085154;28;20525;-72
2021/03/03 01:07:51;;;;;;;15.83;12.20;;;9.70;83.70;;;;;;5072640;28;20531;-72
2021/03/03 01:10:17;;;;;;;16.00;12.87;;;9.60;83.80;;;;;;5071678;28;20398;-72
2021/03/03 01:12:43;;;;;;;18.77;12.57;;;9.60;83.80;;;;;;5072313;28;20207;-72
2021/03/03 01:15:11;;;;;;;18.90;13.60;;;9.60;83.90;;;;;;5071931;28;20490;-72
2021/03/03 01:17:38;;;;;;;13.97;11.27;;;9.50;84.10;;;;;;5072268;28;20670;-72
2021/03/03 01:20:05;;;;;;;15.80;12.20;;;9.50;84.40;;;;;;5076848;28;20418;-72
2021/03/03 01:22:30;;;;;;;15.80;11.93;;;9.50;84.70;;;;;;5091405;28;20410;-72
2021/03/03 01:24:56;;;;;;;15.90;12.27;;;9.50;84.50;;;;;;5092345;28;20751;-72
2021/03/03 01:27:22;;;;;;;15.03;11.23;;;9.40;84.70;;;;;;5091276;28;20255;-72
2021/03/03 01:29:47;;;;;;;13.67;11.63;;;9.40;85.00;;;;;;5092382;28;20164;-72
2021/03/03 01:32:13;;;;;;;15.20;11.50;;;9.40;85.00;;;;;;5088512;28;20279;-72
2021/03/03 01:34:39;;;;;;;15.87;12.03;;;9.40;85.00;;;;;;5072727;28;20602;-72
2021/03/03 01:37:04;;;;;;;15.07;12.60;;;9.50;85.10;;;;;;5092252;28;20223;-72
2021/03/03 01:39:30;;;;;;;16.17;12.40;;;9.40;85.30;;;;;;5090940;28;20217;-72
2021/03/03 01:41:56;;;;;;;18.03;13.20;;;9.40;85.10;;;;;;5091897;28;20662;-72
2021/03/03 01:44:21;;;;;;;12.90;11.00;;;9.30;85.50;;;;;;5073498;28;20191;-72
2021/03/03 01:46:47;;;;;;;14.40;12.27;;;9.30;85.50;;;;;;5091929;28;20168;-73
2021/03/03 01:49:13;;;;;;;15.33;12.40;;;9.30;85.60;;;;;;5091964;28;20171;-72
2021/03/03 01:51:40;;;;;;;17.30;11.57;;;9.20;85.80;;;;;;5090883;28;20685;-72
2021/03/03 01:54:06;;;;;;;17.67;12.17;;;9.20;85.90;;;;;;5091988;28;20494;-72
2021/03/03 01:56:33;;;;;;;13.83;11.00;;;9.20;86.30;;;;;;5073041;28;20874;-72
2021/03/03 01:58:58;;;;;;;15.90;12.60;;;9.20;86.50;;;;;;5074170;28;20870;-72
2021/03/03 02:01:24;;;;;;;14.70;12.17;;;9.10;86.20;;;;;;5090905;28;20409;-72
2021/03/03 02:03:50;;;;;;;14.57;11.97;;;9.10;86.80;;;;;;5091855;28;20176;-72
2021/03/03 02:06:30;;;;;;;15.00;12.20;;;9.10;86.70;;;;;;5087539;28;20223;-72
2021/03/03 02:09:11;;;;;;;15.83;12.50;;;9.00;86.90;;;;;;5075981;28;20168;-72
2021/03/03 02:11:52;;;;;;;16.27;12.70;;;9.00;87.10;;;;;;5076887;28;20441;-71
2021/03/03 02:14:25;;;;;;;18.37;12.63;;;9.00;87.50;;;;;;5093507;28;20731;-72
2021/03/03 02:16:53;;;;;;;16.53;12.90;;;8.90;87.50;;;;;;5057695;28;20400;-72
2021/03/03 02:19:22;;;;;;;20.10;14.37;;;8.90;87.10;;;;;;5058154;28;20426;-72
2021/03/03 02:22:01;;;;;;;22.63;14.17;;;8.90;87.60;;;;;;5095825;28;20463;-72
2021/03/03 02:24:31;;;;;;;15.40;13.20;;;8.90;88.10;;;;;;5076557;28;20405;-71
2021/03/03 02:26:58;;;;;;;18.73;12.77;;;8.90;88.50;;;;;;5096043;28;20418;-72
2021/03/03 02:29:26;;;;;;;19.20;13.13;;;8.90;88.60;;;;;;5095481;28;20405;-72
2021/03/03 02:31:53;;;;;;;16.03;12.00;;;8.90;88.20;;;;;;5095833;28;20450;-72
2021/03/03 02:34:21;;;;;;;17.83;12.33;;;8.80;88.30;;;;;;5077160;28;20406;-72
2021/03/03 02:36:48;;;;;;;15.27;12.20;;;8.90;88.80;;;;;;5095099;28;20488;-72
2021/03/03 02:39:16;;;;;;;17.10;12.33;;;8.90;88.90;;;;;;5095653;28;20416;-72
2021/03/03 02:41:42;;;;;;;15.03;11.37;;;8.90;89.00;;;;;;5095017;28;20414;-72
2021/03/03 02:44:08;;;;;;;18.67;12.50;;;8.80;88.80;;;;;;5095144;28;20765;-72
2021/03/03 02:46:35;;;;;;;20.10;13.60;;;8.80;88.80;;;;;;5094598;28;20376;-72
2021/03/03 02:49:01;;;;;;;17.10;13.20;;;8.80;89.00;;;;;;5094782;28;20436;-72
2021/03/03 02:51:27;;;;;;;13.83;11.00;;;8.80;89.00;;;;;;5076690;28;20400;-72
2021/03/03 02:53:53;;;;;;;19.30;13.23;;;8.80;89.00;;;;;;5093327;28;20456;-72
2021/03/03 02:56:19;;;;;;;18.90;13.20;;;8.80;89.30;;;;;;5064621;28;20201;-72
2021/03/03 02:58:45;;;;;;;16.97;12.70;;;8.70;89.20;;;;;;5082426;28;20181;-71
2021/03/03 03:01:14;;;;;;;17.27;13.13;;;8.70;89.40;;;;;;5075280;28;20406;-72
2021/03/03 03:03:50;;;;;;;21.63;13.13;;;8.70;89.80;;;;;;5070984;28;20507;-72
2021/03/03 03:06:25;;;;;;;19.90;14.13;;;8.60;90.00;;;;;;5077040;28;20910;-72
2021/03/03 03:08:53;;;;;;;20.40;14.73;;;8.60;90.00;;;;;;5094510;28;20418;-71
2021/03/03 03:11:24;;;;;;;20.30;15.50;;;8.60;90.10;;;;;;5094886;28;20920;-71
2021/03/03 03:13:52;;;;;;;19.47;13.20;;;8.60;90.30;;;;;;5092774;28;20422;-72
2021/03/03 03:16:17;;;;;;;19.30;14.53;;;8.60;90.20;;;;;;5076786;28;20414;-71
2021/03/03 03:18:50;;;;;;;17.80;14.07;;;8.60;90.30;;;;;;5075879;28;20402;-71
2021/03/03 03:21:17;;;;;;;22.90;14.13;;;8.60;90.40;;;;;;5094815;28;20393;-71
2021/03/03 03:23:45;;;;;;;22.00;14.43;;;8.60;90.50;;;;;;5093882;28;20471;-71
2021/03/03 03:26:12;;;;;;;25.23;15.53;;;8.60;90.70;;;;;;5094526;28;20424;-72
2021/03/03 03:28:39;;;;;;;18.90;14.67;;;8.60;90.70;;;;;;5093501;28;20423;-72
2021/03/03 03:31:10;;;;;;;22.60;14.43;;;8.60;90.70;;;;;;5094837;28;20402;-72
2021/03/03 03:33:37;;;;;;;19.20;14.57;;;8.50;90.70;;;;;;5075195;28;20441;-71
2021/03/03 03:36:03;;;;;;;20.60;14.00;;;8.60;90.60;;;;;;5094598;28;20450;-71
2021/03/03 03:38:31;;;;;;;23.73;15.53;;;8.50;90.50;;;;;;5093812;28;20504;-71
2021/03/03 03:41:00;;;;;;;23.90;15.73;;;8.50;91.00;;;;;;5094426;28;20489;-71
2021/03/03 03:43:26;;;;;;;18.40;14.53;;;8.50;90.50;;;;;;5094354;28;20406;-71
2021/03/03 03:45:53;;;;;;;18.57;13.27;;;8.50;90.80;;;;;;5093854;28;20417;-71
2021/03/03 03:48:19;;;;;;;18.27;16.07;;;8.50;90.80;;;;;;5094014;28;20416;-72
2021/03/03 03:50:46;;;;;;;20.77;15.40;;;8.50;90.80;;;;;;5093439;28;20543;-71
2021/03/03 03:53:12;;;;;;;21.40;15.27;;;8.50;90.70;;;;;;5094162;28;20989;-72
2021/03/03 03:55:39;;;;;;;18.03;14.60;;;8.40;90.80;;;;;;5093329;28;20484;-72
2021/03/03 03:58:06;;;;;;;19.70;14.97;;;8.40;90.90;;;;;;5094188;28;20421;-72
2021/03/03 04:00:32;;;;;;;21.70;16.20;;;8.40;90.80;;;;;;5093108;28;20429;-72
2021/03/03 04:02:59;;;;;;;19.13;14.67;;;8.40;91.00;;;;;;5093637;28;20472;-71
2021/03/03 04:05:26;;;;;;;21.00;16.13;;;8.30;90.90;;;;;;5093839;28;20471;-72
2021/03/03 04:07:52;;;;;;;20.17;15.67;;;8.30;91.10;;;;;;5093062;28;20417;-72
2021/03/03 04:10:21;;;;;;;19.23;14.63;;;8.30;91.40;;;;;;5093894;28;20500;-72
2021/03/03 04:12:46;;;;;;;19.60;14.50;;;8.20;91.40;;;;;;5092625;28;20435;-72
2021/03/03 04:15:13;;;;;;;19.93;14.87;;;8.20;91.30;;;;;;5094084;28;20411;-72
2021/03/03 04:17:40;;;;;;;26.00;17.10;;;8.20;91.50;;;;;;5092940;28;20515;-72
2021/03/03 04:20:08;;;;;;;16.77;14.00;;;8.30;91.60;;;;;;5093228;28;20456;-72
2021/03/03 04:22:33;;;;;;;17.40;13.60;;;8.20;91.70;;;;;;5092731;28;20414;-71
2021/03/03 04:25:00;;;;;;;20.10;13.57;;;8.20;91.60;;;;;;5074790;28;20504;-71
2021/03/03 04:27:26;;;;;;;18.23;13.93;;;8.20;91.50;;;;;;5093412;28;20232;-71
2021/03/03 04:29:52;;;;;;;20.10;15.30;;;8.30;91.60;;;;;;5092932;28;20391;-71
2021/03/03 04:32:18;;;;;;;17.50;14.13;;;8.20;91.80;;;;;;5093062;28;20459;-72
2021/03/03 04:34:44;;;;;;;21.20;14.47;;;8.20;91.70;;;;;;5091875;28;20188;-71
2021/03/03 04:37:10;;;;;;;16.13;13.60;;;8.20;91.70;;;;;;5092953;28;20449;-71
2021/03/03 04:39:35;;;;;;;18.87;14.80;;;8.20;91.90;;;;;;5092497;28;20420;-72
2021/03/03 04:42:05;;;;;;;20.90;13.80;;;8.20;91.90;;;;;;5093257;28;20946;-72
2021/03/03 04:44:31;;;;;;;17.73;13.60;;;8.20;91.90;;;;;;5092297;28;20618;-71
2021/03/03 04:46:57;;;;;;;18.67;13.97;;;8.20;91.80;;;;;;5092907;28;20415;-71
2021/03/03 04:49:23;;;;;;;20.23;14.57;;;8.10;91.90;;;;;;5093212;28;20492;-72
2021/03/03 04:51:49;;;;;;;17.67;13.93;;;8.10;91.90;;;;;;5091362;28;20465;-72
2021/03/03 04:54:14;;;;;;;18.30;15.40;;;8.10;92.00;;;;;;5074860;28;20839;-71
2021/03/03 04:56:40;;;;;;;17.63;14.00;;;8.10;91.90;;;;;;5092027;28;20178;-72
2021/03/03 04:59:06;;;;;;;18.33;15.27;;;8.10;91.90;;;;;;5092694;28;20521;-71
2021/03/03 05:01:32;;;;;;;17.07;13.33;;;8.10;92.10;;;;;;5092337;28;20169;-71
2021/03/03 05:03:58;;;;;;;18.10;12.90;;;8.10;92.40;;;;;;5092679;28;20166;-71
2021/03/03 05:06:24;;;;;;;17.63;13.63;;;8.10;92.30;;;;;;5092723;28;20393;-71
2021/03/03 05:08:49;;;;;;;15.93;12.23;;;8.10;92.40;;;;;;5091802;28;20617;-71
2021/03/03 05:11:15;;;;;;;20.27;15.33;;;8.10;92.40;;;;;;5092869;28;20263;-71
2021/03/03 05:13:41;;;;;;;18.40;13.30;;;8.10;92.50;;;;;;5091789;28;20214;-71
2021/03/03 05:16:06;;;;;;;16.50;14.33;;;8.10;92.50;;;;;;5092091;28;20172;-72
2021/03/03 05:18:32;;;;;;;18.10;13.27;;;8.10;92.40;;;;;;5092107;28;20177;-71
2021/03/03 05:20:58;;;;;;;15.83;12.60;;;8.10;92.50;;;;;;5091428;28;20218;-73
2021/03/03 05:23:28;;;;;;;18.57;12.47;;;8.10;92.50;;;;;;5074422;28;20178;-72
2021/03/03 05:25:54;;;;;;;17.10;13.80;;;8.10;92.60;;;;;;5091547;28;20186;-72
2021/03/03 05:28:20;;;;;;;22.60;13.53;;;8.00;92.50;;;;;;5092300;28;20412;-71
2021/03/03 05:30:45;;;;;;;20.47;14.10;;;8.00;92.80;;;;;;5091235;28;20404;-71
2021/03/03 05:33:11;;;;;;;15.10;11.87;;;8.10;92.60;;;;;;5091833;28;20794;-71
2021/03/03 05:35:37;;;;;;;19.37;13.40;;;8.10;92.70;;;;;;5091047;28;20206;-71
2021/03/03 05:38:03;;;;;;;17.33;12.67;;;8.10;92.80;;;;;;5090531;28;20577;-72
2021/03/03 05:40:28;;;;;;;18.30;12.63;;;8.10;92.90;;;;;;5084241;28;20680;-72
2021/03/03 05:42:54;;;;;;;18.57;13.37;;;8.10;92.80;;;;;;5087099;28;20523;-72
2021/03/03 05:45:20;;;;;;;16.83;12.83;;;8.10;92.70;;;;;;5091496;28;20206;-72
2021/03/03 05:47:48;;;;;;;17.60;13.93;;;8.00;92.80;;;;;;5091341;28;20405;-71
2021/03/03 05:50:18;;;;;;;18.53;14.17;;;8.10;93.00;;;;;;5091926;28;20170;-72
2021/03/03 05:52:43;;;;;;;17.83;14.20;;;8.10;93.00;;;;;;5073097;28;20455;-71
2021/03/03 05:55:10;;;;;;;18.77;13.53;;;8.10;93.10;;;;;;5091304;28;20413;-71
2021/03/03 05:57:36;;;;;;;16.33;13.33;;;8.10;93.10;;;;;;5091426;28;20385;-71
2021/03/03 06:00:05;;;;;;;17.60;13.30;;;8.10;93.00;;;;;;5091703;28;20390;-71
2021/03/03 06:02:32;;;;;;;15.60;13.37;;;8.10;92.90;;;;;;5091859;28;20388;-71
2021/03/03 06:04:59;;;;;;;15.47;12.80;;;8.10;93.10;;;;;;5091119;28;20435;-71
2021/03/03 06:07:26;;;;;;;17.83;13.23;;;8.10;93.10;;;;;;5091452;28;20404;-72
2021/03/03 06:09:51;;;;;;;16.77;14.67;;;8.10;93.10;;;;;;5090617;28;20418;-71
2021/03/03 06:12:17;;;;;;;21.27;15.23;;;8.10;93.00;;;;;;5091327;28;20940;-71
2021/03/03 06:14:43;;;;;;;19.07;15.57;;;8.10;93.00;;;;;;5089980;28;20184;-72
2021/03/03 06:17:09;;;;;;;20.00;15.70;;;8.10;93.00;;;;;;5091633;28;20420;-71
2021/03/03 06:19:35;;;;;;;17.97;15.43;;;8.10;93.20;;;;;;5090984;28;20226;-71
2021/03/03 06:22:23;;;;;;;19.83;16.13;;;8.10;93.30;;;;;;5091472;28;20179;-71
2021/03/03 06:24:49;;;;;;;19.60;16.60;;;8.10;93.40;;;;;;5089968;28;20183;-71
2021/03/03 06:27:15;;;;;;;18.67;15.13;;;8.10;93.20;;;;;;5091359;28;20403;-72
2021/03/03 06:29:40;;;;;;;18.43;15.17;;;8.10;93.40;;;;;;5090567;28;20397;-71
2021/03/03 06:32:06;;;;;;;16.80;14.10;;;8.10;93.40;;;;;;5091162;28;20210;-71
2021/03/03 06:34:32;;;;;;;19.37;14.70;;;8.20;93.40;;;;;;5072791;28;20266;-72
2021/03/03 06:37:03;;;;;;;17.67;14.80;;;8.10;93.20;;;;;;5091038;28;20215;-72
2021/03/03 06:39:36;;;;;;;20.00;16.23;;;8.10;93.20;;;;;;5091536;28;20606;-71
2021/03/03 06:42:04;;;;;;;18.50;15.63;;;8.20;93.10;;;;;;5091479;28;20918;-72
2021/03/03 06:44:50;;;;;;;16.80;14.33;;;8.10;93.30;;;;;;5065881;28;20839;-72
2021/03/03 06:47:17;;;;;;;18.10;15.50;;;8.20;93.30;;;;;;5071186;28;20373;-72
2021/03/03 06:49:43;;;;;;;24.50;14.90;;;8.20;93.50;;;;;;5056067;28;20416;-71
2021/03/03 06:52:09;;;;;;;18.80;16.60;;;8.20;93.40;;;;;;5082716;28;20471;-71
2021/03/03 06:54:35;;;;;;;21.13;13.90;;;8.20;93.50;;;;;;5084064;28;20433;-72
2021/03/03 06:57:05;;;;;;;20.90;14.80;;;8.20;93.70;;;;;;5094827;28;20392;-72
2021/03/03 06:59:32;;;;;;;16.37;14.50;;;8.30;93.70;;;;;;5094038;28;20172;-72
2021/03/03 07:02:08;;;;;;;20.60;14.37;;;8.30;93.60;;;;;;5094257;28;20421;-72
2021/03/03 07:04:39;;;;;;;19.60;14.70;;;8.30;93.60;;;;;;5094884;28;20413;-72
2021/03/03 07:07:16;;;;;;;19.63;14.60;;;8.30;93.70;;;;;;5094553;28;20407;-73
2021/03/03 07:09:53;;;;;;;20.23;14.50;;;8.30;93.60;;;;;;5094348;28;20467;-74
2021/03/03 07:12:21;;;;;;;18.13;13.73;;;8.40;93.60;;;;;;5094290;28;20536;-72
2021/03/03 07:15:07;;;;;;;18.73;14.00;;;8.40;93.80;;;;;;5070161;28;20472;-72
2021/03/03 07:17:38;;;;;;;18.07;15.20;;;8.40;93.60;;;;;;5075135;28;20427;-72
2021/03/03 07:20:07;;;;;;;18.00;14.60;;;8.40;93.40;;;;;;5094143;28;20821;-72
2021/03/03 07:22:38;;;;;;;17.33;15.37;;;8.50;93.70;;;;;;5094856;28;20402;-72
2021/03/03 07:25:08;;;;;;;21.90;15.70;;;8.50;93.70;;;;;;5094546;28;20499;-71
2021/03/03 07:27:36;;;;;;;18.10;16.20;;;8.50;93.80;;;;;;5076765;28;20498;-73
2021/03/03 07:30:08;;;;;;;18.23;15.63;;;8.60;94.90;;;;;;5092938;28;20422;-74
2021/03/03 07:32:35;;;;;;;20.63;16.80;;;9.20;97.00;;;;;;5073144;28;20447;-73
2021/03/03 07:35:01;;;;;;;24.13;16.50;;;9.80;96.20;;;;;;5094010;28;20972;-72
2021/03/03 07:37:39;;;;;;;18.83;16.37;;;10.50;94.80;;;;;;5090755;28;20567;-73
2021/03/03 07:40:08;;;;;;;24.07;17.80;;;11.10;93.10;;;;;;5088883;28;20433;-73
2021/03/03 07:42:35;;;;;;;23.17;17.30;;;11.70;92.10;;;;;;5069954;28;20433;-73
2021/03/03 07:45:06;;;;;;;23.60;18.50;;;12.10;90.90;;;;;;5091289;28;20407;-73
2021/03/03 07:47:35;;;;;;;22.53;20.10;;;12.50;89.80;;;;;;5089321;28;20424;-73
2021/03/03 07:50:18;;;;;;;24.97;20.87;;;12.90;87.70;;;;;;5080630;28;20907;-73
2021/03/03 07:52:53;;;;;;;20.70;18.53;;;13.20;85.30;;;;;;5086805;28;20508;-73
2021/03/03 07:55:19;;;;;;;21.40;18.50;;;13.50;83.90;;;;;;5083284;28;20431;-73
2021/03/03 07:57:53;;;;;;;20.27;17.97;;;13.70;81.40;;;;;;5093273;28;20962;-73
2021/03/03 08:00:28;;;;;;;20.57;18.47;;;14.00;80.10;;;;;;5071937;28;20169;-73
2021/03/03 08:02:55;;;;;;;20.37;18.20;;;14.10;79.30;;;;;;5058609;28;20428;-73
2021/03/03 08:05:36;;;;;;;23.20;18.90;;;14.20;78.60;;;;;;5074051;28;20448;-73
2021/03/03 08:08:16;;;;;;;21.03;18.97;;;14.40;77.50;;;;;;5091337;28;20414;-73
2021/03/03 08:10:44;;;;;;;21.97;19.00;;;14.50;76.70;;;;;;5089003;28;20501;-74
2021/03/03 08:13:15;;;;;;;21.40;19.10;;;14.50;76.40;;;;;;5088843;28;20987;-72
2021/03/03 08:15:45;;;;;;;23.67;19.60;;;14.30;73.10;;;;;;5072602;28;20431;-72
2021/03/03 08:18:13;;;;;;;19.70;17.70;;;13.90;72.50;;;;;;5088482;28;20512;-72
2021/03/03 08:20:44;;;;;;;23.33;18.70;;;13.50;72.70;;;;;;5091154;28;20448;-71
2021/03/03 08:23:10;;;;;;;25.07;18.63;;;13.20;74.20;;;;;;5090277;28;20821;-71
2021/03/03 08:25:47;;;;;;;29.63;17.20;;;12.90;75.60;;;;;;5093630;28;20446;-71
2021/03/03 08:28:25;;;;;;;25.63;16.97;;;12.60;77.40;;;;;;5093452;28;20424;-71
2021/03/03 08:31:12;;;;;;;21.40;17.63;;;12.30;78.80;;;;;;5092957;28;20414;-72
2021/03/03 08:33:39;;;;;;;21.70;17.30;;;12.10;80.10;;;;;;5092822;28;20469;-72
2021/03/03 08:36:06;;;;;;;25.23;20.20;;;12.00;81.00;;;;;;5081776;28;20475;-71
2021/03/03 08:38:32;;;;;;;519.30;279.57;;;11.90;82.20;;;;;;5087966;28;20423;-71
2021/03/03 08:41:16;;;;;;;328.87;199.03;;;11.80;83.40;;;;;;5081029;28;21037;-71
2021/03/03 08:43:47;;;;;;;58.10;37.20;;;11.80;85.00;;;;;;5092041;28;20905;-71
2021/03/03 08:46:21;;;;;;;37.20;21.00;;;11.80;85.10;;;;;;5084213;28;20876;-71
2021/03/03 08:48:53;;;;;;;36.10;21.03;;;11.80;84.70;;;;;;5085159;28;20431;-71
2021/03/03 08:51:36;;;;;;;32.40;20.53;;;11.80;84.80;;;;;;5084592;28;20475;-71
2021/03/03 08:54:04;;;;;;;25.00;18.60;;;11.80;85.90;;;;;;5087088;28;20495;-71
2021/03/03 08:56:38;;;;;;;36.73;20.40;;;11.80;86.30;;;;;;5083112;28;20812;-71
2021/03/03 08:59:06;;;;;;;33.37;18.90;;;11.80;86.30;;;;;;5082963;28;20400;-71
2021/03/03 09:01:49;;;;;;;35.63;19.10;;;11.90;85.90;;;;;;5082970;28;20514;-71
2021/03/03 09:04:16;;;;;;;352.80;199.20;;;11.90;85.80;;;;;;5081209;28;20766;-71
2021/03/03 09:06:47;;;;;;;125.37;76.23;;;11.90;85.70;;;;;;5081667;28;20735;-71
2021/03/03 09:09:13;;;;;;;44.53;27.80;;;12.00;84.60;;;;;;5081322;28;20399;-71
2021/03/03 09:11:38;;;;;;;25.50;20.63;;;12.00;84.40;;;;;;5079565;28;20423;-71
2021/03/03 09:14:06;;;;;;;21.87;17.07;;;12.00;84.30;;;;;;5091182;28;20424;-71
2021/03/03 09:16:32;;;;;;;20.23;15.97;;;12.10;85.30;;;;;;5092160;28;20170;-71
2021/03/03 09:19:03;;;;;;;26.13;16.17;;;12.20;84.80;;;;;;5090313;28;20765;-71
2021/03/03 09:21:30;;;;;;;23.13;17.70;;;12.20;83.20;;;;;;5092466;28;20835;-71
2021/03/03 09:24:07;;;;;;;17.50;14.80;;;12.20;82.40;;;;;;5091769;28;20870;-70
2021/03/03 09:26:33;;;;;;;25.77;16.90;;;12.30;82.70;;;;;;5092405;28;20426;-70
2021/03/03 09:28:59;;;;;;;22.00;17.20;;;12.40;83.00;;;;;;5092547;28;20455;-71
2021/03/03 09:31:35;;;;;;;20.00;16.40;;;12.50;83.20;;;;;;5092963;28;20196;-70
2021/03/03 09:34:02;;;;;;;21.30;16.70;;;12.60;83.30;;;;;;5073969;28;20196;-70
2021/03/03 09:36:28;;;;;;;22.70;14.40;;;12.60;84.30;;;;;;5092672;28;20491;-70
2021/03/03 09:39:02;;;;;;;18.87;14.70;;;12.70;82.00;;;;;;5092170;28;20443;-71
2021/03/03 09:41:28;;;;;;;17.70;13.93;;;12.80;79.20;;;;;;5083247;28;20414;-70
2021/03/03 09:44:06;;;;;;;21.40;14.43;;;12.90;78.80;;;;;;5083556;28;20921;-70
2021/03/03 09:46:51;;;;;;;17.47;13.67;;;13.00;79.20;;;;;;5092699;28;20244;-71
2021/03/03 09:49:29;;;;;;;22.40;15.00;;;13.10;77.80;;;;;;5091960;28;20451;-70
2021/03/03 09:51:56;;;;;;;20.67;14.57;;;13.20;77.50;;;;;;5091445;28;20395;-71
2021/03/03 09:54:40;;;;;;;17.00;14.40;;;13.40;77.00;;;;;;5091897;28;20419;-72
2021/03/03 09:57:10;;;;;;;17.60;14.57;;;13.50;73.90;;;;;;5091218;28;20448;-72
2021/03/03 09:59:43;;;;;;;17.93;14.77;;;13.50;75.00;;;;;;5092064;28;20432;-72
2021/03/03 10:02:10;;;;;;;24.03;15.63;;;13.60;75.80;;;;;;5091807;28;20399;-72
2021/03/03 10:04:38;;;;;;;21.43;15.80;;;13.80;76.60;;;;;;5091947;28;20410;-72
2021/03/03 10:07:12;;;;;;;23.13;15.97;;;14.10;78.40;;;;;;5091614;28;21037;-72
2021/03/03 10:09:40;;;;;;;22.10;17.47;;;14.50;76.70;;;;;;5092101;28;20434;-72
2021/03/03 10:12:08;;;;;;;24.97;18.10;;;14.60;76.50;;;;;;5090886;28;20453;-72
2021/03/03 10:14:34;;;;;;;19.90;16.87;;;14.90;84.00;;;;;;5072074;28;20733;-72
2021/03/03 10:17:02;;;;;;;21.40;16.30;;;15.30;80.20;;;;;;5053240;28;20418;-72
2021/03/03 10:19:28;;;;;;;16.93;14.17;;;15.60;78.60;;;;;;5071748;28;20403;-72
2021/03/03 10:21:54;;;;;;;19.23;16.03;;;15.90;78.30;;;;;;5071220;28;20491;-72
2021/03/03 10:24:21;;;;;;;23.40;17.33;;;16.10;76.90;;;;;;5075506;28;20963;-72
2021/03/03 10:26:51;;;;;;;16.03;13.90;;;16.30;72.90;;;;;;5095020;28;20427;-72
2021/03/03 10:29:37;;;;;;;18.40;15.07;;;16.50;76.10;;;;;;5095028;28;20503;-72
2021/03/03 10:32:13;;;;;;;20.80;13.53;;;16.90;75.10;;;;;;5088492;28;20601;-72
2021/03/03 10:34:39;;;;;;;18.97;14.83;;;17.20;75.00;;;;;;5074984;28;20480;-72
2021/03/03 10:37:06;;;;;;;18.13;14.13;;;17.70;77.00;;;;;;5074275;28;21128;-72
2021/03/03 10:39:33;;;;;;;17.90;15.40;;;18.10;71.30;;;;;;5075243;28;20458;-72
2021/03/03 10:42:08;;;;;;;23.97;16.90;;;18.50;70.80;;;;;;5074232;28;20535;-72
2021/03/03 10:44:42;;;;;;;21.80;16.57;;;18.80;67.60;;;;;;5070508;28;20486;-72
2021/03/03 10:47:09;;;;;;;21.30;17.07;;;18.90;66.80;;;;;;5073331;28;20477;-72
2021/03/03 10:49:39;;;;;;;45.93;36.10;;;19.00;64.20;;;;;;5057273;28;20399;-72
2021/03/03 10:52:20;;;;;;;91.93;67.63;;;19.20;67.00;;;;;;5082694;28;21027;-71
2021/03/03 10:54:46;;;;;;;97.77;66.60;;;19.30;66.30;;;;;;5089347;28;20462;-72
2021/03/03 10:57:12;;;;;;;28.53;22.17;;;19.40;62.00;;;;;;5084207;28;20411;-72
2021/03/03 10:59:38;;;;;;;30.03;24.13;;;19.50;62.50;;;;;;5075027;28;20452;-72
2021/03/03 11:02:06;;;;;;;29.27;20.80;;;19.60;64.90;;;;;;5074575;28;20169;-72
2021/03/03 11:04:42;;;;;;;23.20;19.50;;;19.80;65.30;;;;;;5074839;28;20391;-72
2021/03/03 11:07:10;;;;;;;24.73;18.57;;;19.90;66.10;;;;;;5074193;28;20411;-72
2021/03/03 11:09:37;;;;;;;19.40;17.30;;;20.10;63.20;;;;;;5075206;28;20431;-72
2021/03/03 11:12:03;;;;;;;22.07;18.53;;;20.20;59.90;;;;;;5074032;28;20530;-72
2021/03/03 11:14:30;;;;;;;22.50;18.30;;;20.10;60.00;;;;;;5074767;28;20503;-74
2021/03/03 11:16:58;;;;;;;21.47;18.53;;;20.10;61.70;;;;;;5073940;28;20407;-72
2021/03/03 11:19:25;;;;;;;19.67;16.60;;;20.10;59.50;;;;;;5074839;28;20419;-72
2021/03/03 11:21:52;;;;;;;19.10;15.70;;;20.10;60.30;;;;;;5073617;28;20403;-72
2021/03/03 11:24:19;;;;;;;25.60;20.30;;;20.20;62.50;;;;;;5074964;28;20410;-72
2021/03/03 11:26:45;;;;;;;24.80;21.05;;;20.30;60.30;;;;;;5072799;28;20497;-72
2021/03/03 11:29:12;;;;;;;30.93;21.50;;;20.40;58.90;;;;;;5072701;28;20181;-72
2021/03/03 11:31:39;;;;;;;24.00;19.30;;;20.40;58.40;;;;;;5076299;28;20410;-72
2021/03/03 11:34:05;;;;;;;24.97;20.30;;;20.50;58.50;;;;;;5093309;28;20454;-73
2021/03/03 11:36:31;;;;;;;25.63;19.83;;;20.50;57.60;;;;;;5075721;28;20489;-71
2021/03/03 11:38:58;;;;;;;26.97;20.07;;;20.70;57.50;;;;;;5093839;28;20894;-71
2021/03/03 11:41:24;;;;;;;26.83;20.23;;;20.70;57.50;;;;;;5094590;28;20417;-71
2021/03/03 11:43:50;;;;;;;22.50;18.27;;;20.80;57.30;;;;;;5094372;28;20398;-71
2021/03/03 11:46:17;;;;;;;24.23;19.30;;;20.80;57.30;;;;;;5094826;28;20406;-71
2021/03/03 11:48:42;;;;;;;23.20;20.10;;;20.80;56.80;;;;;;5094689;28;20878;-71
2021/03/03 11:51:08;;;;;;;26.03;20.33;;;20.90;56.70;;;;;;5093652;28;20398;-71
2021/03/03 11:53:34;;;;;;;26.53;19.73;;;21.00;56.50;;;;;;5082602;28;20250;-71
2021/03/03 11:56:00;;;;;;;22.77;18.57;;;21.00;57.00;;;;;;5092465;28;20426;-72
2021/03/03 11:58:26;;;;;;;24.07;19.50;;;21.10;56.90;;;;;;5094522;28;20176;-71
2021/03/03 12:00:52;;;;;;;22.10;19.27;;;21.10;56.10;;;;;;5094024;28;20427;-71
2021/03/03 12:03:18;;;;;;;21.87;18.63;;;21.10;56.50;;;;;;5094446;28;20434;-71
2021/03/03 12:05:43;;;;;;;21.60;17.67;;;21.10;56.00;;;;;;5075753;28;20222;-71
2021/03/03 12:08:09;;;;;;;20.40;17.63;;;21.20;55.10;;;;;;5074451;28;20181;-71
2021/03/03 12:10:36;;;;;;;22.40;17.13;;;21.10;54.50;;;;;;5056125;28;20212;-71
2021/03/03 12:13:02;;;;;;;22.63;18.80;;;21.20;55.40;;;;;;5073516;28;20253;-71
2021/03/03 12:15:28;;;;;;;24.30;19.67;;;21.20;55.10;;;;;;5073884;28;20396;-71
2021/03/03 12:17:54;;;;;;;26.47;20.20;;;21.20;55.70;;;;;;5073406;28;20871;-71
2021/03/03 12:20:20;;;;;;;23.70;19.83;;;21.20;57.20;;;;;;5073967;28;20457;-71
2021/03/03 12:22:46;;;;;;;28.40;19.03;;;21.20;55.40;;;;;;5073779;28;20176;-71
2021/03/03 12:25:13;;;;;;;22.03;17.70;;;21.20;55.70;;;;;;5081136;28;20426;-71
2021/03/03 12:27:38;;;;;;;27.17;17.17;;;21.20;55.70;;;;;;5085383;28;20185;-71
2021/03/03 12:30:05;;;;;;;24.80;19.20;;;21.10;53.80;;;;;;5082004;28;20404;-71
2021/03/03 12:32:31;;;;;;;19.67;17.57;;;21.00;53.00;;;;;;5073232;28;20299;-71
2021/03/03 12:34:58;;;;;;;24.33;18.63;;;20.90;54.70;;;;;;5073126;28;20439;-71
2021/03/03 12:37:24;;;;;;;21.77;17.30;;;20.70;54.60;;;;;;5073235;28;20581;-71
2021/03/03 12:39:50;;;;;;;24.97;19.13;;;20.60;55.00;;;;;;5073221;28;20457;-71